Time;durP1;ratioP1;P1;durP2;ratioP2;P2;SDS_P1;SDS_P2;PMS_P1;PMS_P2;Temp;Humidity;BMP_temperature;BMP_pressure;BME280_temperature;BME280_humidity;BME280_pressure;Samples;Min_cycle;Max_cycle;Signal;HPM_P1;HPM_P2
2021/12/18 00:04:58;;;;;;;5.53;2.00;;;;;;;6.16;100.00;103802.72;15296808;19;20098;-90
2021/12/18 00:10:00;;;;;;;4.90;2.03;;;;;;;6.23;100.00;103813.63;15298183;19;20014;-90
2021/12/18 00:15:03;;;;;;;5.97;2.20;;;;;;;6.15;100.00;103826.91;15293701;19;20011;-90
2021/12/18 00:20:06;;;;;;;7.03;2.40;;;;;;;6.23;100.00;103813.63;15291032;19;20018;-90
2021/12/18 00:25:08;;;;;;;6.10;2.40;;;;;;;6.25;100.00;103817.28;15296771;19;20022;-89
2021/12/18 00:30:10;;;;;;;6.03;1.88;;;;;;;6.16;100.00;103802.72;15297564;19;20018;-89
2021/12/18 00:35:12;;;;;;;7.25;2.35;;;;;;;6.19;100.00;103810.75;15293475;19;20125;-90
2021/12/18 00:40:20;;;;;;;5.47;2.17;;;;;;;6.27;100.00;103814.00;15291791;19;20090;-90
2021/12/18 00:45:21;;;;;;;5.28;2.05;;;;;;;6.30;100.00;103818.56;15293304;19;20022;-90
2021/12/18 00:50:28;;;;;;;4.47;2.10;;;;;;;6.22;100.00;103811.81;15297445;19;20039;-90
2021/12/18 00:55:30;;;;;;;6.28;2.33;;;;;;;6.15;100.00;103803.47;15293258;19;20399;-90
2021/12/18 01:00:33;;;;;;;5.00;2.13;;;;;;;6.22;100.00;103804.03;15293488;19;20010;-91
2021/12/18 01:05:35;;;;;;;4.75;1.73;;;;;;;6.12;100.00;103800.63;15294585;19;20019;-90
2021/12/18 01:15:47;;;;;;;3.83;1.65;;;;;;;6.06;100.00;103794.91;15288977;19;20582;-89
2021/12/18 01:26:10;;;;;;;;;;;;;;;6.06;100.00;103802.72;15293089;19;20110;-90
2021/12/18 01:31:12;;;;;;;3.20;1.20;;;;;;;6.03;100.00;103794.66;15292601;19;19919;-90
2021/12/18 01:36:13;;;;;;;4.25;1.48;;;;;;;6.06;100.00;103799.22;15289719;19;20367;-89
2021/12/18 01:41:16;;;;;;;3.55;1.30;;;;;;;6.03;100.00;103806.75;15292788;19;20549;-88
2021/12/18 01:51:46;;;;;;;3.55;1.30;;;;;;;5.96;100.00;103803.63;15291167;19;20078;-89
2021/12/18 01:56:47;;;;;;;4.28;1.63;;;;;;;5.98;100.00;103801.19;15285467;19;20039;-90
2021/12/18 02:01:49;;;;;;;4.38;1.52;;;;;;;5.94;100.00;103812.97;15289702;19;20014;-89
2021/12/18 02:06:51;;;;;;;4.00;1.55;;;;;;;5.99;100.00;103797.78;15288472;19;20086;-90
2021/12/18 02:11:53;;;;;;;4.40;1.48;;;;;;;6.06;100.00;103796.63;15288105;19;20102;-90
2021/12/18 02:22:17;;;;;;;5.10;2.00;;;;;;;5.98;100.00;103795.97;15287330;19;20041;-89
2021/12/18 02:27:19;;;;;;;4.03;1.58;;;;;;;6.01;100.00;103798.84;15287171;19;20164;-89
2021/12/18 02:32:21;;;;;;;6.57;2.20;;;;;;;5.94;100.00;103793.84;15289882;19;20018;-90
2021/12/18 02:37:27;;;;;;;6.53;1.70;;;;;;;5.95;100.00;103790.47;15285518;19;20015;-90
2021/12/18 02:42:32;;;;;;;6.28;1.85;;;;;;;5.98;100.00;103780.38;15288269;19;20093;-90
2021/12/18 02:47:34;;;;;;;5.07;1.77;;;;;;;5.92;100.00;103790.22;15287312;19;20413;-89
2021/12/18 02:52:36;;;;;;;4.28;1.52;;;;;;;5.88;100.00;103778.63;15284641;19;20018;-90
2021/12/18 02:57:37;;;;;;;5.40;1.50;;;;;;;5.92;100.00;103759.00;15282092;19;20026;-89
2021/12/18 03:02:42;;;;;;;4.95;1.50;;;;;;;5.79;100.00;103762.25;15284319;19;20019;-89
2021/12/18 03:07:45;;;;;;;4.88;1.65;;;;;;;5.86;100.00;103755.91;15284111;19;20014;-89
2021/12/18 03:23:44;;;;;;;7.47;1.95;;;;;;;5.80;100.00;103757.19;15285347;19;20015;-89
2021/12/18 03:28:45;;;;;;;4.68;1.38;;;;;;;5.81;100.00;103751.22;15284656;19;20070;-90
2021/12/18 03:33:47;;;;;;;6.53;2.08;;;;;;;5.74;100.00;103746.28;15284502;19;20058;-89
2021/12/18 03:38:49;;;;;;;5.78;1.67;;;;;;;5.79;100.00;103744.97;15281298;19;20021;-89
2021/12/18 03:43:51;;;;;;;6.82;1.80;;;;;;;5.68;100.00;103745.75;15281045;19;20587;-90
2021/12/18 03:48:53;;;;;;;10.20;2.33;;;;;;;5.75;100.00;103747.19;15282765;19;20094;-89
2021/12/18 03:53:54;;;;;;;7.68;2.35;;;;;;;5.74;100.00;103741.06;15281646;19;20011;-89
2021/12/18 03:58:57;;;;;;;10.10;2.58;;;;;;;5.63;100.00;103744.44;15278942;19;20015;-90
2021/12/18 04:03:58;;;;;;;8.00;2.00;;;;;;;5.71;100.00;103746.03;15282035;19;20086;-90
2021/12/18 04:09:01;;;;;;;7.60;2.65;;;;;;;5.57;100.00;103738.72;15281380;19;20023;-89
2021/12/18 04:14:03;;;;;;;7.05;2.30;;;;;;;5.59;100.00;103743.28;15295955;19;20006;-89
2021/12/18 04:19:06;;;;;;;6.25;2.47;;;;;;;5.65;100.00;103748.09;15295078;19;20015;-89
2021/12/18 04:24:08;;;;;;;5.93;2.00;;;;;;;5.52;100.00;103745.25;15296541;19;20013;-89
2021/12/18 04:29:10;;;;;;;7.22;2.13;;;;;;;5.53;100.00;103745.38;15297534;19;20820;-89
2021/12/18 04:34:11;;;;;;;6.05;1.90;;;;;;;5.64;100.00;103751.47;15295618;19;20086;-90
2021/12/18 04:39:13;;;;;;;6.57;1.98;;;;;;;5.59;100.00;103747.59;15289621;19;20018;-89
2021/12/18 04:44:15;;;;;;;5.60;1.73;;;;;;;5.52;100.00;103743.53;15294747;19;20014;-89
2021/12/18 04:49:17;;;;;;;7.53;1.95;;;;;;;5.53;100.00;103747.97;15291108;19;20391;-89
2021/12/18 04:54:18;;;;;;;6.43;2.00;;;;;;;5.56;100.00;103736.94;15290976;19;20011;-88
2021/12/18 04:59:20;;;;;;;6.07;2.03;;;;;;;5.49;100.00;103732.88;15288017;19;20557;-89
2021/12/18 05:04:22;;;;;;;8.35;1.88;;;;;;;5.53;100.00;103731.47;15289780;19;20010;-89
2021/12/18 05:09:24;;;;;;;4.05;1.70;;;;;;;5.55;100.00;103722.09;15290784;19;20014;-90
2021/12/18 05:14:25;;;;;;;7.90;1.85;;;;;;;5.56;100.00;103723.94;15287973;19;20011;-90
2021/12/18 05:19:27;;;;;;;5.90;1.85;;;;;;;5.54;100.00;103722.88;15282160;19;20729;-89
2021/12/18 05:24:29;;;;;;;7.05;1.88;;;;;;;5.59;100.00;103729.41;15283281;19;20377;-89
2021/12/18 05:29:30;;;;;;;7.65;2.63;;;;;;;5.52;100.00;103732.25;15287280;19;20765;-89
2021/12/18 05:34:37;;;;;;;9.05;2.60;;;;;;;5.46;100.00;103723.16;15289236;19;20352;-89
2021/12/18 05:39:39;;;;;;;12.13;3.28;;;;;;;5.44;100.00;103721.19;15281115;19;20017;-89
2021/12/18 05:44:42;;;;;;;14.73;4.05;;;;;;;5.48;100.00;103724.19;15287180;19;20014;-89
2021/12/18 05:49:43;;;;;;;13.23;3.50;;;;;;;5.44;100.00;103727.31;15287176;19;20025;-90
2021/12/18 05:54:45;;;;;;;11.80;3.15;;;;;;;5.40;100.00;103719.13;15286848;19;20014;-89
2021/12/18 05:59:46;;;;;;;10.70;2.80;;;;;;;5.38;100.00;103726.78;15283833;19;20010;-89
2021/12/18 06:04:48;;;;;;;8.35;2.00;;;;;;;5.41;100.00;103716.66;15283412;19;20661;-90
2021/12/18 06:09:50;;;;;;;10.70;2.40;;;;;;;5.41;100.00;103719.25;15285584;19;20081;-89
2021/12/18 06:14:52;;;;;;;5.32;2.05;;;;;;;5.39;100.00;103717.28;15285969;19;20086;-90
2021/12/18 06:19:54;;;;;;;4.43;1.80;;;;;;;5.40;100.00;103714.81;15285696;19;20082;-90
2021/12/18 06:24:55;;;;;;;5.78;2.20;;;;;;;5.39;100.00;103723.41;15279203;19;20017;-89
2021/12/18 06:29:58;;;;;;;5.65;1.92;;;;;;;5.34;100.00;103719.50;15285839;19;20468;-90
2021/12/18 06:34:59;;;;;;;7.72;2.45;;;;;;;5.29;100.00;103716.50;15283399;19;20410;-88
2021/12/18 06:40:02;;;;;;;7.32;2.33;;;;;;;5.31;100.00;103714.03;15284677;19;20366;-88
2021/12/18 06:45:11;;;;;;;7.65;2.22;;;;;;;5.38;100.00;103706.00;15286652;19;20031;-88
2021/12/18 06:50:13;;;;;;;7.43;2.47;;;;;;;5.32;100.00;103705.47;15280534;19;20906;-89
2021/12/18 06:55:16;;;;;;;8.85;2.72;;;;;;;5.38;100.00;103705.09;15284327;19;20022;-89
2021/12/18 07:00:22;;;;;;;9.30;2.70;;;;;;;5.35;100.00;103710.03;15280908;19;20078;-88
2021/12/18 07:05:24;;;;;;;9.85;3.22;;;;;;;5.37;100.00;103708.47;15281985;19;20400;-88
2021/12/18 07:10:26;;;;;;;10.63;3.72;;;;;;;5.35;100.00;103710.03;15283150;19;20078;-89
2021/12/18 07:15:27;;;;;;;11.50;3.30;;;;;;;5.35;100.00;103705.72;15283309;19;20007;-90
2021/12/18 07:20:29;;;;;;;12.18;4.30;;;;;;;5.41;100.00;103693.25;15282414;19;20082;-91
2021/12/18 07:25:31;;;;;;;15.80;4.35;;;;;;;5.43;100.00;103699.47;15282456;19;20011;-90
2021/12/18 07:30:33;;;;;;;15.90;4.43;;;;;;;5.41;100.00;103701.06;15282502;19;20099;-90
2021/12/18 07:35:35;;;;;;;15.48;4.43;;;;;;;5.45;100.00;103700.53;15279980;19;20491;-89
2021/12/18 07:40:37;;;;;;;11.95;4.25;;;;;;;5.48;100.00;103692.09;15279090;19;20036;-90
2021/12/18 07:45:39;;;;;;;14.38;4.63;;;;;;;5.51;100.00;103709.63;15261934;19;21079;-89
2021/12/18 07:50:40;;;;;;;13.23;4.63;;;;;;;5.49;100.00;103710.44;15302780;19;20032;-87
2021/12/18 07:55:42;;;;;;;13.95;4.28;;;;;;;5.57;100.00;103710.13;15299791;19;20082;-87
2021/12/18 08:00:44;;;;;;;11.85;4.22;;;;;;;5.57;100.00;103707.53;15307524;19;20086;-88
2021/12/18 08:05:46;;;;;;;12.00;4.05;;;;;;;5.59;100.00;103716.41;15291327;19;20023;-90
2021/12/18 08:10:48;;;;;;;12.40;4.30;;;;;;;5.68;100.00;103714.56;15297075;19;20011;-90
2021/12/18 08:15:52;;;;;;;13.95;4.88;;;;;;;5.68;100.00;103706.75;15287577;19;20426;-87
2021/12/18 08:20:54;;;;;;;10.32;3.33;;;;;;;5.70;100.00;103710.38;15295642;19;20006;-88
2021/12/18 08:25:56;;;;;;;14.55;3.00;;;;;;;5.76;100.00;103713.50;15297779;19;20018;-89
2021/12/18 08:30:58;;;;;;;9.05;3.00;;;;;;;5.84;100.00;103709.88;15297878;19;20102;-89
2021/12/18 08:36:00;;;;;;;9.70;2.85;;;;;;;5.79;100.00;103700.75;15294758;19;20010;-90
2021/12/18 08:41:03;;;;;;;8.07;2.83;;;;;;;5.87;100.00;103708.28;15277107;19;20459;-89
2021/12/18 08:46:05;;;;;;;8.32;3.03;;;;;;;5.94;100.00;103697.63;15278396;19;20370;-89
2021/12/18 08:51:07;;;;;;;13.48;3.15;;;;;;;5.97;100.00;103703.09;15285822;19;20537;-89
2021/12/18 08:56:09;;;;;;;8.90;2.88;;;;;;;6.00;100.00;103706.88;15284657;19;20086;-89
2021/12/18 09:01:10;;;;;;;9.13;2.50;;;;;;;6.07;100.00;103696.97;15269918;19;20340;-90
2021/12/18 09:06:15;;;;;;;7.50;2.45;;;;;;;6.15;100.00;103695.91;15292819;19;20014;-91
2021/12/18 09:11:19;;;;;;;8.27;2.25;;;;;;;6.18;100.00;103697.09;15294448;19;20011;-91
2021/12/18 09:16:52;;;;;;;8.57;2.92;;;;;;;6.35;100.00;103705.31;15304876;19;20010;-93
2021/12/18 09:22:43;;;;;;;7.50;2.22;;;;;;;6.40;100.00;103706.63;15287594;19;20014;-92
2021/12/18 09:28:03;;;;;;;9.52;2.15;;;;;;;6.50;100.00;103698.78;15282759;19;20011;-91
2021/12/18 09:33:06;;;;;;;7.18;2.13;;;;;;;6.61;100.00;103698.72;15293135;19;20010;-88
2021/12/18 09:38:08;;;;;;;6.43;1.98;;;;;;;6.64;100.00;103691.16;15285972;19;20118;-88
2021/12/18 09:43:10;;;;;;;6.03;1.98;;;;;;;6.68;100.00;103690.59;15294385;19;20014;-87
2021/12/18 09:48:12;;;;;;;6.18;2.30;;;;;;;6.78;100.00;103680.13;15293828;19;20074;-89
2021/12/18 09:53:14;;;;;;;7.53;1.52;;;;;;;6.90;100.00;103678.50;15298350;19;20391;-87
2021/12/18 09:58:15;;;;;;;5.15;1.20;;;;;;;6.90;100.00;103683.72;15294636;19;20424;-90
2021/12/18 10:03:17;;;;;;;6.63;2.10;;;;;;;6.92;100.00;103676.03;15294513;19;20024;-87
2021/12/18 10:08:21;;;;;;;4.45;1.33;;;;;;;7.00;100.00;103671.41;15286783;19;20011;-88
2021/12/18 10:13:22;;;;;;;3.05;1.42;;;;;;;6.89;100.00;103670.53;15290443;19;20022;-88
2021/12/18 10:18:32;;;;;;;4.18;1.80;;;;;;;6.98;100.00;103654.72;15293990;19;20028;-87
2021/12/18 10:23:34;;;;;;;7.03;1.92;;;;;;;7.01;100.00;103660.16;15307049;19;20014;-87
2021/12/18 10:28:44;;;;;;;8.27;1.65;;;;;;;7.05;100.00;103657.03;15306852;19;20026;-89
2021/12/18 10:33:46;;;;;;;9.68;2.13;;;;;;;6.89;100.00;103663.66;15298838;19;20040;-88
2021/12/18 10:38:53;;;;;;;6.85;1.90;;;;;;;6.99;100.00;103654.84;15295813;19;20035;-89
2021/12/18 10:44:08;;;;;;;10.43;2.50;;;;;;;7.04;100.00;103650.91;15308869;19;20462;-88
2021/12/18 10:49:11;;;;;;;11.82;2.65;;;;;;;6.98;100.00;103646.91;15292593;19;20018;-90
2021/12/18 10:54:19;;;;;;;8.95;2.15;;;;;;;7.03;100.00;103645.59;15285526;19;20035;-89
2021/12/18 10:59:31;;;;;;;10.77;2.65;;;;;;;7.08;100.00;103639.03;15283615;19;20036;-90
2021/12/18 11:04:40;;;;;;;7.40;2.30;;;;;;;7.04;100.00;103634.34;15282679;19;20086;-90
2021/12/18 11:09:49;;;;;;;7.72;1.98;;;;;;;7.10;100.00;103623.50;15284561;19;20022;-89
2021/12/18 11:14:50;;;;;;;13.35;2.42;;;;;;;7.13;100.00;103619.47;15286545;19;20011;-89
2021/12/18 11:19:53;;;;;;;5.60;2.13;;;;;;;7.23;100.00;103619.34;15274191;19;20387;-91
2021/12/18 11:25:03;;;;;;;11.13;2.47;;;;;;;7.24;100.00;103613.34;15275797;19;20014;-88
2021/12/18 11:30:08;;;;;;;9.80;2.50;;;;;;;7.34;100.00;103598.41;15297174;19;20003;-89
2021/12/18 11:35:19;;;;;;;10.15;2.70;;;;;;;7.32;100.00;103589.56;15296934;19;20074;-89
2021/12/18 11:40:37;;;;;;;10.82;2.65;;;;;;;7.41;100.00;103577.22;15293110;19;20369;-90
2021/12/18 11:45:39;;;;;;;11.23;2.40;;;;;;;7.53;100.00;103582.44;15294528;19;20011;-90
2021/12/18 11:50:45;;;;;;;13.70;3.10;;;;;;;7.64;100.00;103572.78;15299399;19;20689;-91
2021/12/18 11:55:49;;;;;;;5.47;1.95;;;;;;;7.70;100.00;103573.25;15294361;19;20023;-87
2021/12/18 12:01:05;;;;;;;7.38;2.03;;;;;;;7.78;100.00;103567.81;15295040;19;20030;-87
2021/12/18 12:06:31;;;;;;;11.63;1.73;;;;;;;7.94;99.45;103564.63;15296687;19;20074;-87
2021/12/18 12:12:02;;;;;;;9.73;1.85;;;;;;;8.00;99.29;103548.50;15287332;19;20013;-90
2021/12/18 12:18:18;;;;;;;10.32;2.00;;;;;;;8.01;98.60;103545.06;15294401;19;20017;-90
2021/12/18 12:38:09;;;;;;;9.05;2.00;;;;;;;8.02;98.09;103543.41;15284720;19;20106;-89
2021/12/18 12:44:01;;;;;;;6.72;1.75;;;;;;;8.04;98.71;103534.84;15263003;19;20014;-90
2021/12/18 12:50:00;;;;;;;16.40;2.38;;;;;;;7.93;98.79;103536.69;15264483;19;20018;-90
2021/12/18 13:02:11;;;;;;;6.15;2.00;;;;;;;8.09;98.38;103525.66;15261503;19;20015;-89
2021/12/18 13:08:16;;;;;;;12.90;2.08;;;;;;;8.09;99.08;103520.44;15265273;19;20010;-89
2021/12/18 13:19:33;;;;;;;9.57;2.08;;;;;;;8.09;98.25;103511.69;15264951;19;20542;-89
2021/12/18 13:25:57;;;;;;;11.10;2.35;;;;;;;8.05;98.17;103504.47;15181930;19;2004382;-89
2021/12/18 13:31:32;;;;;;;12.57;2.63;;;;;;;8.02;98.37;103504.25;15287923;19;20086;-90
2021/12/18 13:36:56;;;;;;;10.13;2.20;;;;;;;7.97;98.48;103504.81;15287809;19;20050;-90
2021/12/18 13:42:17;;;;;;;8.73;2.20;;;;;;;7.87;98.98;103499.75;15288987;19;20627;-90
2021/12/18 13:47:27;;;;;;;9.57;2.03;;;;;;;7.93;98.95;103500.16;15289868;19;20025;-86
2021/12/18 13:52:39;;;;;;;;;;;;;;;7.93;98.43;103494.94;15292444;19;20023;-89
2021/12/18 13:58:06;;;;;;;6.90;2.00;;;;;;;7.93;98.22;103494.06;15300239;19;19911;-89
2021/12/18 14:03:15;;;;;;;8.95;2.92;;;;;;;7.89;98.39;103492.03;15304214;19;20010;-85
2021/12/18 14:08:19;;;;;;;5.30;1.80;;;;;;;7.79;98.63;103480.00;15303292;19;20342;-86
2021/12/18 14:13:20;;;;;;;12.02;2.58;;;;;;;7.78;98.40;103486.94;15302446;19;20083;-87
2021/12/18 14:18:34;;;;;;;8.30;2.58;;;;;;;7.68;98.70;103486.16;15303397;19;20058;-89
2021/12/18 14:23:40;;;;;;;13.82;2.45;;;;;;;7.55;98.95;103484.38;15292801;19;20024;-86
2021/12/18 14:28:42;;;;;;;8.10;2.13;;;;;;;7.46;98.88;103486.31;15290891;19;20015;-86
2021/12/18 14:33:53;;;;;;;8.52;2.25;;;;;;;7.39;99.04;103479.75;15285818;19;20027;-86
2021/12/18 14:38:57;;;;;;;15.27;2.47;;;;;;;7.24;99.55;103487.34;15286553;19;20014;-85
2021/12/18 14:43:59;;;;;;;17.85;2.92;;;;;;;7.08;100.00;103485.28;15287145;19;20022;-90
2021/12/18 14:49:11;;;;;;;15.18;2.75;;;;;;;7.13;100.00;103483.03;15297720;19;20516;-87
2021/12/18 14:54:13;;;;;;;8.40;2.45;;;;;;;7.15;99.67;103469.31;15298010;19;20545;-89
2021/12/18 14:59:16;;;;;;;9.57;2.13;;;;;;;7.16;100.00;103478.03;15306333;19;20014;-87
2021/12/18 15:04:20;;;;;;;10.13;3.50;;;;;;;7.19;99.75;103479.19;15303454;19;20474;-89
2021/12/18 15:09:24;;;;;;;9.15;2.03;;;;;;;7.19;99.95;103478.25;15298572;19;20014;-88
2021/12/18 15:14:36;;;;;;;13.13;2.83;;;;;;;7.13;99.94;103478.75;15291167;19;20014;-88
2021/12/18 15:19:41;;;;;;;13.05;3.05;;;;;;;7.13;99.69;103477.81;15287075;19;20011;-89
2021/12/18 15:24:43;;;;;;;9.80;2.00;;;;;;;7.12;99.66;103469.09;15286602;19;20085;-89
2021/12/18 15:29:46;;;;;;;11.63;2.45;;;;;;;7.11;99.55;103469.88;15288629;19;20010;-89
2021/12/18 15:34:49;;;;;;;7.50;1.83;;;;;;;7.02;99.72;103470.09;15285702;19;20014;-88
2021/12/18 15:39:51;;;;;;;11.02;2.50;;;;;;;7.03;99.19;103471.91;15283958;19;20039;-89
2021/12/18 15:44:52;;;;;;;10.18;2.67;;;;;;;7.02;99.68;103483.13;15284428;19;20101;-90
2021/12/18 15:49:54;;;;;;;8.57;3.45;;;;;;;7.04;99.36;103476.34;15292778;19;20006;-87
2021/12/18 15:54:56;;;;;;;15.10;2.95;;;;;;;7.04;99.73;103478.03;15297389;19;20081;-89
2021/12/18 16:00:00;;;;;;;6.10;2.30;;;;;;;7.02;99.68;103480.53;15289073;19;20078;-89
2021/12/18 16:05:17;;;;;;;11.10;3.10;;;;;;;7.01;100.00;103478.72;15174946;19;2004311;-90
2021/12/18 16:10:21;;;;;;;12.57;2.40;;;;;;;7.02;100.00;103480.53;15301068;19;20418;-90
2021/12/18 16:15:23;;;;;;;10.73;2.60;;;;;;;7.03;99.67;103471.91;15300665;19;20007;-87
2021/12/18 16:20:25;;;;;;;10.50;2.42;;;;;;;7.04;99.89;103473.75;15302011;19;20027;-90
2021/12/18 16:25:29;;;;;;;11.13;2.38;;;;;;;7.03;99.46;103465.81;15299462;19;20006;-88
2021/12/18 16:30:31;;;;;;;10.52;2.42;;;;;;;7.11;99.74;103469.88;15300388;19;20018;-88
2021/12/18 16:35:33;;;;;;;15.65;3.65;;;;;;;7.12;99.53;103471.72;15300168;19;20073;-90
2021/12/18 16:40:37;;;;;;;12.10;3.38;;;;;;;7.10;99.17;103475.91;15294987;19;20035;-89
2021/12/18 16:45:40;;;;;;;10.57;3.13;;;;;;;7.07;99.52;103478.25;15290456;19;20010;-87
2021/12/18 16:50:41;;;;;;;13.57;2.78;;;;;;;7.14;99.56;103479.63;15293464;19;20031;-89
2021/12/18 16:55:44;;;;;;;13.18;2.83;;;;;;;7.07;99.72;103471.38;15291460;19;20657;-88
2021/12/18 17:00:47;;;;;;;10.70;2.67;;;;;;;7.11;99.59;103466.38;15291701;19;20033;-87
2021/12/18 17:05:48;;;;;;;8.10;2.20;;;;;;;7.06;99.30;103479.06;15291143;19;20549;-87
2021/12/18 17:10:50;;;;;;;10.93;3.15;;;;;;;7.06;99.46;103466.03;15294170;19;20021;-87
2021/12/18 17:15:52;;;;;;;13.82;3.00;;;;;;;7.14;99.15;103464.91;15294289;19;20018;-87
2021/12/18 17:20:54;;;;;;;14.38;3.53;;;;;;;7.11;98.92;103454.25;15292147;19;20006;-87
2021/12/18 17:25:55;;;;;;;16.73;4.93;;;;;;;7.16;98.63;103458.13;15292306;19;20074;-87
2021/12/18 17:30:59;;;;;;;16.70;3.70;;;;;;;7.09;98.65;103440.22;15288305;19;20035;-87
2021/12/18 17:36:00;;;;;;;17.98;4.80;;;;;;;7.03;98.67;103444.97;15293936;19;20022;-87
2021/12/18 17:41:02;;;;;;;12.93;4.07;;;;;;;7.03;98.92;103434.56;15289136;19;20401;-87
2021/12/18 17:46:04;;;;;;;14.57;4.15;;;;;;;6.95;98.54;103434.00;15288291;19;20014;-88
2021/12/18 17:51:05;;;;;;;16.63;3.50;;;;;;;6.96;98.45;103434.88;15291353;19;20020;-88
2021/12/18 17:56:07;;;;;;;13.88;3.92;;;;;;;6.99;98.37;103433.41;15287341;19;20364;-87
2021/12/18 18:01:09;;;;;;;10.77;3.00;;;;;;;6.94;97.59;103433.88;15287743;19;20011;-88
2021/12/18 18:06:11;;;;;;;13.23;2.70;;;;;;;6.89;97.79;103411.00;15287504;19;20445;-87
2021/12/18 18:11:13;;;;;;;9.80;2.30;;;;;;;6.90;97.10;103420.63;15290558;19;20069;-88
2021/12/18 18:16:17;;;;;;;10.05;2.60;;;;;;;6.95;97.10;103402.72;15291246;19;20090;-87
2021/12/18 18:21:19;;;;;;;11.00;2.90;;;;;;;6.89;97.50;103407.47;15285057;19;20024;-87
2021/12/18 18:26:21;;;;;;;10.45;2.55;;;;;;;6.89;97.50;103404.84;15285941;19;20025;-89
2021/12/18 18:31:24;;;;;;;7.15;2.15;;;;;;;6.92;97.13;103407.72;15285972;19;20015;-88
2021/12/18 18:36:26;;;;;;;8.95;2.38;;;;;;;6.87;97.57;103396.94;15287446;19;20031;-88
2021/12/18 18:41:29;;;;;;;7.45;2.67;;;;;;;6.88;97.30;103397.84;15281013;19;20010;-88
2021/12/18 18:46:40;;;;;;;13.52;3.10;;;;;;;6.80;97.71;103389.47;15286276;19;20074;-87
2021/12/18 18:51:42;;;;;;;9.60;2.50;;;;;;;6.83;97.44;103389.69;15284262;19;20331;-88
2021/12/18 18:56:47;;;;;;;9.30;2.15;;;;;;;6.82;97.94;103384.38;15283281;19;20037;-88
2021/12/18 19:01:48;;;;;;;10.77;2.20;;;;;;;6.83;98.49;103393.97;15283331;19;20038;-87
2021/12/18 19:06:50;;;;;;;7.70;2.85;;;;;;;6.75;98.43;103385.59;15282792;19;20006;-88
2021/12/18 19:11:52;;;;;;;7.00;2.60;;;;;;;6.72;99.09;103380.16;15287111;19;20017;-88
2021/12/18 19:16:53;;;;;;;7.90;2.95;;;;;;;6.72;99.06;103381.09;15282949;19;20114;-88
2021/12/18 19:21:55;;;;;;;12.23;3.30;;;;;;;6.81;98.95;103379.94;15283104;19;20424;-87
2021/12/18 19:26:59;;;;;;;12.98;3.70;;;;;;;6.77;98.92;103378.84;15283255;19;20014;-88
2021/12/18 19:32:01;;;;;;;13.20;4.05;;;;;;;6.74;98.90;103378.59;15286308;19;20058;-87
2021/12/18 19:37:03;;;;;;;12.13;4.00;;;;;;;6.75;99.42;103363.88;15281986;19;20101;-88
2021/12/18 19:42:06;;;;;;;15.60;4.20;;;;;;;6.72;99.71;103356.72;15287849;19;20468;-87
2021/12/18 19:47:08;;;;;;;13.13;4.20;;;;;;;6.70;99.31;103355.72;15296749;19;20014;-88
2021/12/18 19:52:10;;;;;;;9.02;3.50;;;;;;;6.67;99.40;103352.91;15299356;19;20007;-88
2021/12/18 19:57:11;;;;;;;7.90;3.63;;;;;;;6.64;99.20;103352.69;15295856;19;20015;-88
2021/12/18 20:02:28;;;;;;;14.40;4.65;;;;;;;6.65;99.22;103350.19;15296047;19;20019;-88
2021/12/18 20:07:32;;;;;;;11.85;4.28;;;;;;;6.63;99.02;103348.25;15296111;19;20018;-89
2021/12/18 20:12:35;;;;;;;6.82;2.88;;;;;;;6.58;98.86;103345.31;15295652;19;20018;-88
2021/12/18 20:17:39;;;;;;;7.32;2.33;;;;;;;6.50;97.98;103342.13;15295528;19;20021;-88
2021/12/18 20:22:41;;;;;;;7.63;2.50;;;;;;;6.47;97.41;103331.50;15294614;19;20031;-90
2021/12/18 20:27:43;;;;;;;5.60;2.28;;;;;;;6.40;97.46;103318.81;15294475;19;20143;-89
2021/12/18 20:32:45;;;;;;;6.57;2.28;;;;;;;6.36;97.11;103332.38;15292518;19;20200;-89
2021/12/18 20:37:50;;;;;;;6.07;2.67;;;;;;;6.31;96.85;103329.44;15296192;19;20451;-90
2021/12/18 20:42:55;;;;;;;5.55;2.60;;;;;;;6.33;96.51;103332.16;15291805;19;20038;-89
2021/12/18 20:47:57;;;;;;;9.93;3.15;;;;;;;6.32;96.40;103309.50;15291887;19;20014;-87
2021/12/18 20:53:00;;;;;;;6.65;2.28;;;;;;;6.30;96.31;103312.00;15294749;19;20010;-90
2021/12/18 20:58:06;;;;;;;7.25;1.90;;;;;;;6.25;95.77;103305.56;15292601;19;20074;-90
2021/12/18 21:03:07;;;;;;;6.50;2.28;;;;;;;6.32;95.77;103299.09;15298908;19;20034;-90
2021/12/18 21:08:09;;;;;;;5.28;2.38;;;;;;;6.27;95.77;103290.94;15295695;19;20018;-89
2021/12/18 21:13:12;;;;;;;5.53;2.15;;;;;;;6.37;96.04;103284.75;15292253;19;20018;-90
2021/12/18 21:18:18;;;;;;;7.10;2.65;;;;;;;6.38;95.51;103291.78;15291364;19;20023;-90
2021/12/18 21:23:21;;;;;;;15.63;5.57;;;;;;;6.28;96.32;103279.75;15290741;19;20014;-90
2021/12/18 21:28:24;;;;;;;9.40;3.92;;;;;;;6.29;96.28;103280.66;15292657;19;20010;-89
2021/12/18 21:33:26;;;;;;;12.27;3.80;;;;;;;6.31;95.91;103281.69;15293456;19;20121;-89
2021/12/18 21:38:28;;;;;;;6.97;2.45;;;;;;;6.24;96.82;103271.63;15291778;19;20019;-90
2021/12/18 21:43:31;;;;;;;11.73;2.88;;;;;;;6.29;96.93;103265.03;15290442;19;20479;-89
2021/12/18 21:48:33;;;;;;;9.65;3.17;;;;;;;6.36;96.41;103275.13;15290561;19;20012;-89
2021/12/18 21:53:35;;;;;;;9.55;3.58;;;;;;;6.25;96.42;103269.13;15290298;19;20015;-89
2021/12/18 21:58:37;;;;;;;7.80;2.95;;;;;;;6.29;96.37;103285.88;15289114;19;20015;-89
2021/12/18 22:03:39;;;;;;;7.38;3.05;;;;;;;6.34;96.01;103271.50;15297627;19;20019;-89
2021/12/18 22:08:42;;;;;;;8.65;2.80;;;;;;;6.22;96.61;103276.72;15289171;19;20027;-89
2021/12/18 22:13:43;;;;;;;9.48;2.95;;;;;;;6.25;96.56;103276.03;15288009;19;20006;-89
2021/12/18 22:18:45;;;;;;;8.73;2.80;;;;;;;6.29;96.64;103272.84;15289148;19;20836;-89
2021/12/18 22:23:47;;;;;;;10.52;3.10;;;;;;;6.21;97.04;103263.59;15288026;19;20074;-90
2021/12/18 22:28:49;;;;;;;10.05;3.17;;;;;;;6.26;96.87;103242.31;15287438;19;20021;-89
2021/12/18 22:33:51;;;;;;;9.02;3.00;;;;;;;6.30;96.89;103236.53;15286389;19;20404;-89
2021/12/18 22:38:52;;;;;;;5.90;2.60;;;;;;;6.31;97.17;103225.34;15289429;19;20085;-89
2021/12/18 22:43:55;;;;;;;8.98;3.00;;;;;;;6.28;97.37;103245.94;15285581;19;20039;-89
2021/12/18 22:48:58;;;;;;;9.80;2.80;;;;;;;6.32;97.09;103229.75;15286749;19;20018;-90
2021/12/18 22:54:00;;;;;;;10.32;2.97;;;;;;;6.31;97.21;103227.06;15285017;19;20357;-90
2021/12/18 22:59:02;;;;;;;4.90;2.08;;;;;;;6.38;97.07;103226.72;15285838;19;20031;-89
2021/12/18 23:04:06;;;;;;;7.00;2.30;;;;;;;6.39;96.65;103215.50;15295835;19;20019;-89
2021/12/18 23:09:22;;;;;;;9.90;2.42;;;;;;;6.42;96.88;103218.31;15285703;19;20392;-89
2021/12/18 23:14:43;;;;;;;6.93;2.00;;;;;;;6.40;97.41;103214.72;15282807;19;20335;-90
2021/12/18 23:20:07;;;;;;;;;;;;;;;6.37;97.55;103204.06;15301302;19;20018;-90
2021/12/18 23:25:10;;;;;;;6.05;1.98;;;;;;;6.44;97.58;103203.75;15299382;19;19932;-91
2021/12/18 23:30:14;;;;;;;7.22;2.53;;;;;;;6.51;97.12;103207.66;15299925;19;20882;-89
2021/12/18 23:35:16;;;;;;;9.95;2.58;;;;;;;6.44;97.54;103197.59;15297582;19;20018;-88
2021/12/18 23:40:20;;;;;;;12.52;2.22;;;;;;;6.44;97.77;103182.00;15298148;19;20454;-89
2021/12/18 23:50:43;;;;;;;10.55;2.35;;;;;;;6.43;98.02;103154.19;15301626;19;20086;-90
2021/12/18 23:55:47;;;;;;;5.90;2.15;;;;;;;6.44;97.59;103146.47;15296928;19;20066;-90
